createdAt,value
2023-03-10T00:02:06.813Z,0.50
2023-03-10T00:04:37.569Z,0.70
2023-03-10T00:07:08.482Z,0.60
2023-03-10T00:09:39.313Z,1.00
2023-03-10T00:12:11.393Z,0.60
2023-03-10T00:14:42.342Z,1.00
2023-03-10T00:17:13.005Z,0.50
2023-03-10T00:19:43.796Z,0.60
2023-03-10T00:22:14.489Z,0.60
2023-03-10T00:24:45.186Z,0.60
2023-03-10T00:27:16.431Z,0.60
2023-03-10T00:29:47.155Z,1.00
2023-03-10T00:32:17.920Z,0.60
2023-03-10T00:34:48.610Z,0.40
2023-03-10T00:37:20.107Z,0.60
2023-03-10T00:39:55.765Z,0.50
2023-03-10T00:42:26.487Z,0.40
2023-03-10T00:44:57.361Z,0.80
2023-03-10T00:47:28.069Z,0.60
2023-03-10T00:49:58.925Z,0.50
2023-03-10T00:52:32.521Z,0.60
2023-03-10T00:55:03.239Z,0.70
2023-03-10T00:57:36.426Z,0.50
2023-03-10T01:00:09.810Z,0.50
2023-03-10T01:02:40.585Z,0.40
2023-03-10T01:05:12.854Z,0.50
2023-03-10T01:07:43.604Z,0.60
2023-03-10T01:10:15.394Z,0.50
2023-03-10T01:12:46.280Z,0.60
2023-03-10T01:15:17.649Z,0.50
2023-03-10T01:17:48.455Z,0.70
2023-03-10T01:20:19.613Z,0.50
2023-03-10T01:22:50.988Z,0.60
2023-03-10T01:25:21.675Z,0.80
2023-03-10T01:27:52.454Z,0.50
2023-03-10T01:30:23.327Z,0.40
2023-03-10T01:32:54.143Z,0.40
2023-03-10T01:35:25.184Z,0.40
2023-03-10T01:37:56.134Z,0.70
2023-03-10T01:40:27.736Z,0.60
2023-03-10T01:43:28.489Z,0.60
2023-03-10T01:46:35.175Z,0.50
2023-03-10T01:49:09.362Z,0.90
2023-03-10T01:51:42.868Z,0.60
2023-03-10T01:54:18.050Z,0.70
2023-03-10T01:56:51.533Z,0.50
2023-03-10T01:59:22.860Z,0.60
2023-03-10T02:01:54.616Z,0.70
2023-03-10T02:04:31.400Z,0.70
2023-03-10T02:07:03.521Z,0.60
2023-03-10T02:09:37.543Z,0.60
2023-03-10T02:12:10.728Z,0.50
2023-03-10T02:14:43.306Z,0.60
2023-03-10T02:17:17.276Z,0.50
2023-03-10T02:19:59.938Z,0.40
2023-03-10T02:22:31.024Z,0.50
2023-03-10T02:25:11.497Z,0.50
2023-03-10T02:27:42.680Z,0.70
2023-03-10T02:30:17.475Z,0.90
2023-03-10T02:32:52.140Z,0.70
2023-03-10T02:35:23.242Z,0.40
2023-03-10T02:37:53.943Z,0.60
2023-03-10T02:40:32.555Z,0.40
2023-03-10T02:43:05.034Z,0.60
2023-03-10T02:45:41.733Z,0.60
2023-03-10T02:48:14.423Z,0.40
2023-03-10T02:50:48.068Z,0.40
2023-03-10T02:53:21.679Z,0.40
2023-03-10T02:55:52.583Z,0.40
2023-03-10T02:58:26.785Z,0.60
2023-03-10T03:00:57.751Z,0.50
2023-03-10T03:03:28.786Z,0.40
2023-03-10T03:05:59.840Z,0.40
2023-03-10T03:08:30.771Z,0.50
2023-03-10T03:11:01.921Z,0.70
2023-03-10T03:13:34.372Z,0.60
2023-03-10T03:16:06.200Z,0.50
2023-03-10T03:18:37.586Z,0.40
2023-03-10T03:21:11.711Z,0.50
2023-03-10T03:23:42.501Z,0.40
2023-03-10T03:26:20.361Z,0.50
2023-03-10T03:28:52.307Z,0.50
2023-03-10T03:31:26.162Z,0.50
2023-03-10T03:36:26.065Z,0.50
2023-03-10T03:38:56.920Z,0.40
2023-03-10T03:41:28.017Z,0.60
2023-03-10T03:43:58.670Z,0.60
2023-03-10T03:46:30.145Z,0.50
2023-03-10T03:49:01.392Z,0.50
2023-03-10T03:51:32.335Z,0.50
2023-03-10T03:54:03.269Z,0.40
2023-03-10T03:56:34.324Z,0.30
2023-03-10T03:59:05.260Z,0.30
2023-03-10T04:01:35.987Z,0.50
2023-03-10T04:04:06.855Z,0.30
2023-03-10T04:06:37.693Z,0.40
2023-03-10T04:09:10.514Z,0.30
2023-03-10T04:11:41.308Z,0.50
2023-03-10T04:14:12.056Z,0.50
2023-03-10T04:16:42.855Z,0.40
2023-03-10T04:19:13.999Z,0.50
2023-03-10T04:21:44.977Z,0.40
2023-03-10T04:24:15.714Z,0.30
2023-03-10T04:26:46.555Z,0.40
2023-03-10T04:29:17.393Z,0.50
2023-03-10T04:31:59.112Z,0.40
2023-03-10T04:34:35.811Z,0.40
2023-03-10T04:37:06.751Z,0.60
2023-03-10T04:39:38.667Z,0.20
2023-03-10T04:42:10.037Z,0.30
2023-03-10T04:44:40.775Z,0.50
2023-03-10T04:47:11.991Z,0.30
2023-03-10T04:49:42.850Z,0.60
2023-03-10T04:52:14.526Z,0.50
2023-03-10T04:54:45.589Z,0.40
2023-03-10T04:57:16.750Z,0.40
2023-03-10T04:59:47.952Z,0.30
2023-03-10T05:02:18.991Z,0.50
2023-03-10T05:04:49.674Z,0.50
2023-03-10T05:07:21.591Z,0.50
2023-03-10T05:09:52.730Z,0.60
2023-03-10T05:12:23.986Z,0.50
2023-03-10T05:14:54.887Z,0.40
2023-03-10T05:17:26.892Z,0.40
2023-03-10T05:19:58.564Z,0.50
2023-03-10T05:22:29.500Z,2.00
2023-03-10T05:25:00.244Z,2.90
2023-03-10T05:27:33.114Z,4.20
2023-03-10T05:30:05.205Z,4.10
2023-03-10T05:32:38.531Z,3.60
2023-03-10T05:35:10.946Z,4.50
2023-03-10T05:37:43.330Z,2.40
2023-03-10T05:40:19.615Z,2.90
2023-03-10T05:42:51.017Z,3.20
2023-03-10T05:45:22.110Z,2.50
2023-03-10T05:47:52.809Z,2.60
2023-03-10T05:50:23.796Z,2.20
2023-03-10T05:52:54.620Z,3.20
2023-03-10T05:55:28.741Z,2.60
2023-03-10T05:57:59.484Z,1.90
2023-03-10T06:00:31.005Z,2.50
2023-03-10T06:03:03.071Z,2.80
2023-03-10T06:05:34.067Z,2.30
2023-03-10T06:08:05.146Z,1.90
2023-03-10T06:10:36.619Z,2.00
2023-03-10T06:13:07.487Z,1.50
2023-03-10T06:15:38.470Z,1.80
2023-03-10T06:18:09.271Z,1.80
2023-03-10T06:20:42.125Z,2.70
2023-03-10T06:23:12.992Z,1.40
2023-03-10T06:25:44.213Z,1.40
2023-03-10T06:28:15.083Z,1.70
2023-03-10T06:30:46.128Z,1.30
2023-03-10T06:33:16.751Z,1.70
2023-03-10T06:35:47.872Z,1.50
2023-03-10T06:38:18.648Z,1.40
2023-03-10T06:40:51.984Z,1.30
2023-03-10T06:43:22.780Z,1.40
2023-03-10T06:45:53.597Z,1.20
2023-03-10T06:48:24.660Z,1.50
2023-03-10T06:50:55.614Z,0.90
2023-03-10T06:53:27.108Z,1.30
2023-03-10T06:56:02.392Z,1.30
2023-03-10T06:58:34.906Z,1.20
2023-03-10T07:01:07.682Z,1.00
2023-03-10T07:03:38.751Z,0.60
2023-03-10T07:06:10.484Z,0.90
2023-03-10T07:08:41.628Z,1.20
2023-03-10T07:11:14.999Z,1.50
2023-03-10T07:13:45.987Z,1.50
2023-03-10T07:16:17.371Z,1.40
2023-03-10T07:18:48.405Z,1.00
2023-03-10T07:21:22.047Z,1.30
2023-03-10T07:23:53.841Z,1.20
2023-03-10T07:26:24.770Z,0.80
2023-03-10T07:28:55.814Z,0.70
2023-03-10T07:31:27.186Z,1.00
2023-03-10T07:33:58.004Z,1.00
2023-03-10T07:36:29.389Z,1.10
2023-03-10T07:39:00.195Z,1.00
2023-03-10T07:41:30.933Z,0.90
2023-03-10T07:44:01.869Z,0.80
2023-03-10T07:46:32.810Z,1.10
2023-03-10T07:49:05.100Z,0.90
2023-03-10T07:51:35.967Z,0.70
2023-03-10T07:54:06.995Z,1.10
2023-03-10T07:56:37.751Z,0.80
2023-03-10T07:59:08.437Z,1.00
2023-03-10T08:01:39.266Z,0.50
2023-03-10T08:04:12.561Z,0.70
2023-03-10T08:06:43.632Z,1.10
2023-03-10T08:09:14.383Z,1.10
2023-03-10T08:11:45.211Z,0.70
2023-03-10T08:14:20.940Z,0.70
2023-03-10T08:16:51.879Z,0.90
2023-03-10T08:19:22.834Z,0.90
2023-03-10T08:21:55.016Z,0.60
2023-03-10T08:24:25.857Z,1.00
2023-03-10T08:26:56.724Z,0.90
2023-03-10T08:29:27.659Z,0.60
2023-03-10T08:31:58.644Z,1.30
2023-03-10T08:34:32.870Z,0.50
2023-03-10T08:37:04.286Z,0.70
2023-03-10T08:39:35.172Z,0.70
2023-03-10T08:42:06.669Z,0.70
2023-03-10T08:44:37.501Z,0.40
2023-03-10T08:47:08.907Z,0.60
2023-03-10T08:49:41.775Z,0.50
2023-03-10T08:52:14.008Z,0.50
2023-03-10T08:54:44.861Z,0.90
2023-03-10T08:57:15.763Z,0.40
2023-03-10T08:59:46.642Z,0.60
2023-03-10T09:02:20.658Z,1.00
2023-03-10T09:04:51.725Z,0.40
2023-03-10T09:07:22.662Z,0.40
2023-03-10T09:09:53.627Z,0.50
2023-03-10T09:12:24.513Z,0.50
2023-03-10T09:14:55.252Z,0.40
2023-03-10T09:17:26.008Z,0.30
2023-03-10T09:19:56.840Z,0.80
2023-03-10T09:22:27.780Z,1.10
2023-03-10T09:25:00.674Z,0.50
2023-03-10T09:27:31.609Z,0.60
2023-03-10T09:30:02.667Z,0.60
2023-03-10T09:32:33.675Z,0.40
2023-03-10T09:35:04.745Z,0.60
2023-03-10T09:37:35.679Z,0.40
2023-03-10T09:40:10.015Z,0.50
2023-03-10T09:42:45.569Z,0.50
2023-03-10T09:45:37.005Z,0.70
2023-03-10T09:48:31.366Z,0.40
2023-03-10T09:51:07.406Z,0.60
2023-03-10T09:53:59.964Z,0.60
2023-03-10T09:56:34.009Z,0.30
2023-03-10T09:59:11.683Z,0.50
2023-03-10T10:01:45.512Z,0.40
2023-03-10T10:04:20.417Z,0.40
2023-03-10T10:06:52.349Z,0.60
2023-03-10T10:09:30.383Z,0.60
2023-03-10T10:12:10.931Z,0.40
2023-03-10T10:14:48.148Z,0.60
2023-03-10T10:17:35.428Z,0.40
2023-03-10T10:20:18.432Z,0.30
2023-03-10T10:22:49.247Z,0.40
2023-03-10T10:25:23.067Z,0.40
2023-03-10T10:27:58.174Z,0.40
2023-03-10T10:30:32.253Z,0.20
2023-03-10T10:33:05.392Z,0.70
2023-03-10T10:35:39.466Z,0.50
2023-03-10T10:38:24.675Z,0.30
2023-03-10T10:41:07.001Z,0.60
2023-03-10T10:43:47.598Z,0.60
2023-03-10T10:46:26.092Z,0.60
2023-03-10T10:49:20.443Z,0.50
2023-03-10T10:52:02.282Z,0.30
2023-03-10T10:54:39.236Z,0.60
2023-03-10T10:57:21.103Z,0.40
2023-03-10T10:59:52.888Z,0.50
2023-03-10T11:02:31.935Z,0.60
2023-03-10T11:05:17.210Z,0.50
2023-03-10T11:07:48.506Z,0.40
2023-03-10T11:10:21.227Z,0.30
2023-03-10T11:13:02.039Z,0.70
2023-03-10T11:15:37.302Z,0.60
2023-03-10T11:18:13.229Z,0.50
2023-03-10T11:20:52.817Z,0.40
2023-03-10T11:23:31.988Z,0.40
2023-03-10T11:26:13.642Z,0.50
2023-03-10T11:28:54.411Z,0.60
2023-03-10T11:31:40.219Z,0.60
2023-03-10T11:34:21.713Z,0.70
2023-03-10T11:37:02.121Z,0.30
2023-03-10T11:39:43.307Z,0.40
2023-03-10T11:42:24.584Z,0.70
2023-03-10T11:45:14.081Z,0.40
2023-03-10T11:47:56.351Z,0.70
2023-03-10T11:50:38.150Z,0.60
2023-03-10T11:53:17.681Z,0.50
2023-03-10T11:55:50.673Z,0.50
2023-03-10T11:58:27.400Z,0.40
2023-03-10T12:01:00.128Z,0.50
2023-03-10T12:03:42.465Z,0.60
2023-03-10T12:06:18.590Z,0.30
2023-03-10T12:08:52.301Z,0.50
2023-03-10T12:11:27.158Z,0.20
2023-03-10T12:14:02.167Z,0.60
2023-03-10T12:16:37.457Z,0.30
2023-03-10T12:19:08.935Z,0.40
2023-03-10T12:21:39.683Z,0.40
2023-03-10T12:24:34.293Z,0.40
2023-03-10T12:27:06.689Z,0.20
2023-03-10T12:29:42.953Z,0.30
2023-03-10T12:32:47.408Z,0.20
2023-03-10T12:35:52.246Z,0.50
2023-03-10T12:38:31.876Z,0.30
2023-03-10T12:41:04.225Z,0.30
2023-03-10T12:44:26.714Z,0.40
2023-03-10T12:47:13.838Z,0.30
2023-03-10T12:49:52.148Z,0.40
2023-03-10T12:52:30.483Z,0.20
2023-03-10T12:55:22.229Z,0.40
2023-03-10T12:58:00.813Z,0.40
2023-03-10T13:00:50.221Z,0.40
2023-03-10T13:03:31.495Z,0.50
2023-03-10T13:06:09.477Z,0.40
2023-03-10T13:08:51.925Z,0.30
2023-03-10T13:11:37.140Z,0.40
2023-03-10T13:14:14.565Z,0.30
2023-03-10T13:16:55.913Z,0.40
2023-03-10T13:19:29.184Z,0.50
2023-03-10T13:22:00.265Z,0.50
2023-03-10T13:24:33.058Z,0.30
2023-03-10T13:27:13.412Z,0.60
2023-03-10T13:29:57.352Z,0.40
2023-03-10T13:32:29.379Z,0.50
2023-03-10T13:35:12.952Z,0.40
2023-03-10T13:37:43.984Z,0.50
2023-03-10T13:40:19.941Z,0.40
2023-03-10T13:42:51.104Z,0.40
2023-03-10T13:45:34.010Z,0.60
2023-03-10T13:48:06.411Z,0.30
2023-03-10T13:50:37.332Z,0.40
2023-03-10T13:53:24.802Z,0.70
2023-03-10T13:55:57.428Z,0.40
2023-03-10T13:58:28.796Z,0.40
2023-03-10T14:01:01.059Z,0.70
2023-03-10T14:03:32.104Z,0.50
2023-03-10T14:06:13.162Z,0.60
2023-03-10T14:08:44.212Z,0.30
2023-03-10T14:11:36.956Z,0.40
2023-03-10T14:14:08.705Z,0.30
2023-03-10T14:16:54.716Z,0.40
2023-03-10T14:19:54.699Z,0.30
2023-03-10T14:22:35.382Z,0.50
2023-03-10T14:25:12.886Z,0.40
2023-03-10T14:27:46.046Z,0.30
2023-03-10T14:30:28.912Z,0.40
2023-03-10T14:33:01.498Z,0.40
2023-03-10T14:35:32.580Z,0.60
2023-03-10T14:38:03.534Z,0.20
2023-03-10T14:40:36.494Z,0.40
2023-03-10T14:43:08.233Z,0.40
2023-03-10T14:45:41.384Z,0.40
2023-03-10T14:48:17.745Z,0.20
2023-03-10T14:50:49.663Z,0.30
2023-03-10T14:53:24.035Z,0.40
2023-03-10T14:55:57.158Z,3.50
2023-03-10T14:58:31.383Z,2.70
2023-03-10T15:01:03.403Z,1.90
2023-03-10T15:03:34.178Z,2.80
2023-03-10T15:06:05.147Z,3.00
2023-03-10T15:08:36.030Z,1.90
2023-03-10T15:11:07.698Z,1.50
2023-03-10T15:13:40.128Z,2.10
2023-03-10T15:16:15.685Z,2.20
2023-03-10T15:18:47.162Z,1.70
2023-03-10T15:21:18.100Z,1.90
2023-03-10T15:23:48.964Z,2.20
2023-03-10T15:26:19.955Z,1.80
2023-03-10T15:28:50.882Z,1.20
2023-03-10T15:31:23.843Z,1.70
2023-03-10T15:33:55.065Z,1.00
2023-03-10T15:36:26.096Z,1.40
2023-03-10T15:38:57.515Z,1.20
2023-03-10T15:41:28.306Z,1.20
2023-03-10T15:43:59.053Z,1.00
2023-03-10T15:46:30.056Z,1.40
2023-03-10T15:49:03.310Z,1.20
2023-03-10T15:51:34.452Z,1.20
2023-03-10T15:54:05.578Z,1.00
2023-03-10T15:56:36.358Z,1.20
2023-03-10T15:59:08.301Z,1.00
2023-03-10T16:01:39.378Z,1.30
2023-03-10T16:04:10.273Z,1.30
2023-03-10T16:06:41.268Z,1.40
2023-03-10T16:09:12.130Z,1.10
2023-03-10T16:11:43.097Z,1.10
2023-03-10T16:14:14.462Z,1.20
2023-03-10T16:16:45.402Z,1.50
2023-03-10T16:19:16.742Z,1.40
2023-03-10T16:21:47.537Z,1.40
2023-03-10T16:24:18.636Z,1.20
2023-03-10T16:26:49.826Z,1.30
2023-03-10T16:29:21.425Z,0.90
2023-03-10T16:31:54.158Z,1.20
2023-03-10T16:34:25.325Z,0.80
2023-03-10T16:36:57.596Z,1.00
2023-03-10T16:39:31.192Z,0.80
2023-03-10T16:42:02.229Z,1.00
2023-03-10T16:44:33.638Z,0.80
2023-03-10T16:47:04.614Z,1.00
2023-03-10T16:49:36.513Z,0.90
2023-03-10T16:52:10.964Z,1.10
2023-03-10T16:54:42.133Z,0.90
2023-03-10T16:57:13.477Z,1.40
2023-03-10T16:59:44.820Z,0.90
2023-03-10T17:02:18.381Z,0.80
2023-03-10T17:04:49.296Z,0.90
2023-03-10T17:07:20.614Z,1.00
2023-03-10T17:09:51.573Z,0.80
2023-03-10T17:12:22.594Z,0.90
2023-03-10T17:14:56.410Z,1.10
2023-03-10T17:17:27.484Z,1.00
2023-03-10T17:19:58.397Z,1.10
2023-03-10T17:22:29.662Z,1.00
2023-03-10T17:25:01.779Z,0.70
2023-03-10T17:27:32.770Z,0.90
2023-03-10T17:30:04.188Z,1.20
2023-03-10T17:32:35.248Z,1.50
2023-03-10T17:35:07.488Z,1.10
2023-03-10T17:37:38.773Z,1.20
2023-03-10T17:40:15.421Z,1.10
2023-03-10T17:42:46.330Z,1.00
2023-03-10T17:45:17.595Z,0.80
2023-03-10T17:47:48.719Z,0.80
2023-03-10T17:50:22.541Z,1.10
2023-03-10T17:52:54.027Z,0.90
2023-03-10T17:55:25.253Z,0.90
2023-03-10T17:57:56.178Z,1.00
2023-03-10T18:00:27.905Z,0.80
2023-03-10T18:02:59.103Z,1.10
2023-03-10T18:05:30.347Z,0.90
2023-03-10T18:08:01.479Z,0.90
2023-03-10T18:10:34.617Z,0.70
2023-03-10T18:13:07.148Z,0.70
2023-03-10T18:15:38.979Z,0.70
2023-03-10T18:18:10.014Z,0.70
2023-03-10T18:20:41.668Z,0.70
2023-03-10T18:23:13.059Z,0.90
2023-03-10T18:25:44.795Z,0.90
2023-03-10T18:28:18.929Z,0.60
2023-03-10T18:30:53.064Z,1.20
2023-03-10T18:33:24.189Z,0.70
2023-03-10T18:35:55.236Z,0.60
2023-03-10T18:38:26.442Z,0.70
2023-03-10T18:41:00.851Z,1.00
2023-03-10T18:43:34.301Z,0.40
2023-03-10T18:46:05.648Z,1.40
2023-03-10T18:48:36.676Z,0.80
2023-03-10T18:51:08.254Z,0.90
2023-03-10T18:53:40.187Z,0.90
2023-03-10T18:56:12.184Z,0.70
2023-03-10T18:58:43.089Z,0.80
2023-03-10T19:01:15.106Z,1.00
2023-03-10T19:03:46.411Z,0.70
2023-03-10T19:06:17.395Z,0.70
2023-03-10T19:08:48.468Z,1.00
2023-03-10T19:11:22.722Z,0.80
2023-03-10T19:13:53.940Z,0.80
2023-03-10T19:16:25.040Z,0.50
2023-03-10T19:18:56.092Z,0.60
2023-03-10T19:21:27.264Z,0.90
2023-03-10T19:23:58.088Z,0.40
2023-03-10T19:26:29.929Z,1.10
2023-03-10T19:29:02.542Z,0.70
2023-03-10T19:31:33.823Z,0.70
2023-03-10T19:34:04.741Z,0.60
2023-03-10T19:36:35.873Z,0.70
2023-03-10T19:39:07.233Z,0.80
2023-03-10T19:41:39.742Z,0.40
2023-03-10T19:44:11.538Z,1.00
2023-03-10T19:46:42.320Z,0.60
2023-03-10T19:49:13.485Z,0.60
2023-03-10T19:51:44.540Z,0.50
2023-03-10T19:54:15.617Z,0.50
2023-03-10T19:56:46.575Z,0.70
2023-03-10T19:59:17.439Z,0.70
2023-03-10T20:01:49.403Z,0.70
2023-03-10T20:04:20.597Z,0.80
2023-03-10T20:06:51.645Z,0.60
2023-03-10T20:09:23.032Z,0.70
2023-03-10T20:11:57.519Z,0.70
2023-03-10T20:14:31.401Z,0.70
2023-03-10T20:17:02.433Z,0.70
2023-03-10T20:19:33.775Z,0.90
2023-03-10T20:22:05.004Z,0.50
2023-03-10T20:24:36.543Z,0.70
2023-03-10T20:27:07.712Z,0.60
2023-03-10T20:29:38.739Z,0.50
2023-03-10T20:32:10.093Z,0.50
2023-03-10T20:34:41.401Z,0.40
2023-03-10T20:37:12.406Z,0.50
2023-03-10T20:39:43.483Z,0.40
2023-03-10T20:42:14.720Z,0.40
2023-03-10T20:44:45.765Z,0.40
2023-03-10T20:47:16.805Z,0.40
2023-03-10T20:49:47.733Z,0.40
2023-03-10T20:52:18.891Z,0.30
2023-03-10T20:54:49.753Z,0.40
2023-03-10T20:57:21.448Z,0.40
2023-03-10T20:59:53.035Z,0.40
2023-03-10T21:02:24.452Z,0.40
2023-03-10T21:04:56.280Z,0.30
2023-03-10T21:07:27.892Z,0.50
2023-03-10T21:10:00.934Z,0.50
2023-03-10T21:12:32.372Z,0.40
2023-03-10T21:15:03.611Z,0.60
2023-03-10T21:17:34.859Z,0.80
2023-03-10T21:20:08.005Z,0.60
2023-03-10T21:22:40.454Z,0.30
2023-03-10T21:25:14.408Z,0.60
2023-03-10T21:27:47.781Z,0.40
2023-03-10T21:30:21.742Z,0.40
2023-03-10T21:32:52.683Z,0.50
2023-03-10T21:35:23.679Z,0.40
2023-03-10T21:37:55.649Z,0.40
2023-03-10T21:40:26.863Z,0.70
2023-03-10T21:42:57.897Z,0.50
2023-03-10T21:45:29.474Z,0.50
2023-03-10T21:48:00.940Z,0.40
2023-03-10T21:50:31.847Z,0.60
2023-03-10T21:53:03.000Z,0.40
2023-03-10T21:55:36.392Z,0.20
2023-03-10T21:58:07.338Z,0.40
2023-03-10T22:00:38.382Z,0.30
2023-03-10T22:03:09.554Z,0.50
2023-03-10T22:05:40.574Z,0.30
2023-03-10T22:08:11.961Z,0.50
2023-03-10T22:10:43.315Z,0.40
2023-03-10T22:13:14.322Z,0.20
2023-03-10T22:15:45.263Z,0.40
2023-03-10T22:18:16.257Z,0.40
2023-03-10T22:20:47.082Z,0.30
2023-03-10T22:23:17.949Z,0.30
2023-03-10T22:25:48.849Z,0.30
2023-03-10T22:28:19.750Z,0.50
2023-03-10T22:30:50.894Z,0.30
2023-03-10T22:33:21.760Z,0.40
2023-03-10T22:35:53.078Z,0.50
2023-03-10T22:38:24.262Z,0.20
2023-03-10T22:40:55.299Z,0.50
2023-03-10T22:43:26.132Z,0.30
2023-03-10T22:45:59.372Z,0.40
2023-03-10T22:48:30.276Z,0.30
2023-03-10T22:51:01.105Z,0.20
2023-03-10T22:53:32.171Z,0.40
2023-03-10T22:56:02.919Z,0.60
2023-03-10T22:58:33.771Z,0.30
2023-03-10T23:01:05.302Z,0.30
2023-03-10T23:03:37.223Z,0.60
2023-03-10T23:06:09.396Z,0.20
2023-03-10T23:08:40.900Z,0.40
2023-03-10T23:11:13.983Z,0.30
2023-03-10T23:13:45.487Z,0.20
2023-03-10T23:16:18.219Z,0.30
2023-03-10T23:18:49.058Z,0.20
2023-03-10T23:21:20.097Z,0.30
2023-03-10T23:23:50.879Z,0.20
2023-03-10T23:26:21.584Z,0.20
2023-03-10T23:28:52.624Z,0.30
2023-03-10T23:31:23.716Z,0.30
2023-03-10T23:33:54.728Z,0.20
2023-03-10T23:36:25.568Z,0.60
2023-03-10T23:38:56.296Z,0.50
2023-03-10T23:41:27.251Z,0.20
2023-03-10T23:43:58.174Z,0.30
2023-03-10T23:46:29.208Z,0.30
2023-03-10T23:49:00.073Z,0.20
2023-03-10T23:51:31.026Z,0.70
2023-03-10T23:54:01.962Z,0.30
2023-03-10T23:56:32.786Z,0.40
2023-03-10T23:59:03.729Z,0.20
